Richmond, Maine
Current Conditions -  °F | °C
As of 3:53 AM on Friday 31 Oct 2014 (Local Time) from KIWI Reporting Station
Clear Clear  
Wind Chill: 30°   Ceiling: Unl
Heat Index: 30°   Visibility: 9mi
Dew Point: 28°   Wind: 0mph
Humidity: 92%   Direction: NA
Pressure: 30.03"   Gusts: NA
Location:  44.09°N, 69.8°W
Report Text: KIWI 310753Z AUTO 00000KT 9SM CLR M01/M02 A3003 RMK AO2 SLP170 I1001 T10111022
Loading
Personal Weather Stations






























Interactive Weather Map
Tropical Storm Tracking
New forecast layout! Learn more

10-Day Weather Forecast

Advertisements
Track Severe Weather on mobile